sensor_id;sensor_type;location;lat;lon;timestamp;temperature;humidity
21891;DHT22;11110;52.386;16.940;2023-12-20T00:02:07;21.10;50.10
21891;DHT22;11110;52.386;16.940;2023-12-20T00:04:36;21.20;50.10
21891;DHT22;11110;52.386;16.940;2023-12-20T00:07:04;21.20;50.10
21891;DHT22;11110;52.386;16.940;2023-12-20T00:09:33;21.20;50.00
21891;DHT22;11110;52.386;16.940;2023-12-20T00:12:02;21.10;50.00
21891;DHT22;11110;52.386;16.940;2023-12-20T00:14:30;21.10;50.00
21891;DHT22;11110;52.386;16.940;2023-12-20T00:16:59;21.10;50.00
21891;DHT22;11110;52.386;16.940;2023-12-20T00:19:29;21.20;49.90
21891;DHT22;11110;52.386;16.940;2023-12-20T00:21:58;21.20;49.90
21891;DHT22;11110;52.386;16.940;2023-12-20T00:24:27;21.20;50.00
21891;DHT22;11110;52.386;16.940;2023-12-20T00:26:55;21.20;50.00
21891;DHT22;11110;52.386;16.940;2023-12-20T00:29:23;21.20;49.90
21891;DHT22;11110;52.386;16.940;2023-12-20T00:31:52;21.10;50.00
21891;DHT22;11110;52.386;16.940;2023-12-20T00:34:20;21.20;50.00
21891;DHT22;11110;52.386;16.940;2023-12-20T00:36:51;21.10;50.00
21891;DHT22;11110;52.386;16.940;2023-12-20T00:39:19;21.20;50.00
21891;DHT22;11110;52.386;16.940;2023-12-20T00:41:48;21.20;50.00
21891;DHT22;11110;52.386;16.940;2023-12-20T00:44:16;21.20;50.00
21891;DHT22;11110;52.386;16.940;2023-12-20T00:46:44;21.30;49.90
21891;DHT22;11110;52.386;16.940;2023-12-20T00:49:13;21.20;49.80
21891;DHT22;11110;52.386;16.940;2023-12-20T00:51:42;21.20;49.80
21891;DHT22;11110;52.386;16.940;2023-12-20T00:54:11;21.20;49.80
21891;DHT22;11110;52.386;16.940;2023-12-20T00:56:40;21.20;49.80
21891;DHT22;11110;52.386;16.940;2023-12-20T00:59:09;21.10;49.80
21891;DHT22;11110;52.386;16.940;2023-12-20T01:01:38;21.20;49.80
21891;DHT22;11110;52.386;16.940;2023-12-20T01:04:09;21.20;49.80
21891;DHT22;11110;52.386;16.940;2023-12-20T01:06:38;21.20;49.80
21891;DHT22;11110;52.386;16.940;2023-12-20T01:09:07;21.10;49.80
21891;DHT22;11110;52.386;16.940;2023-12-20T01:11:36;21.10;49.80
21891;DHT22;11110;52.386;16.940;2023-12-20T01:14:05;21.10;49.80
21891;DHT22;11110;52.386;16.940;2023-12-20T01:16:34;21.10;49.70
21891;DHT22;11110;52.386;16.940;2023-12-20T01:19:02;21.00;49.80
21891;DHT22;11110;52.386;16.940;2023-12-20T01:21:31;21.00;49.90
21891;DHT22;11110;52.386;16.940;2023-12-20T01:23:59;21.00;49.90
21891;DHT22;11110;52.386;16.940;2023-12-20T01:26:28;21.00;49.80
21891;DHT22;11110;52.386;16.940;2023-12-20T01:28:58;20.90;49.90
21891;DHT22;11110;52.386;16.940;2023-12-20T01:31:26;20.90;50.00
21891;DHT22;11110;52.386;16.940;2023-12-20T01:33:55;21.00;50.00
21891;DHT22;11110;52.386;16.940;2023-12-20T01:36:24;20.90;50.00
21891;DHT22;11110;52.386;16.940;2023-12-20T01:38:52;20.90;50.10
21891;DHT22;11110;52.386;16.940;2023-12-20T01:41:21;20.90;50.20
21891;DHT22;11110;52.386;16.940;2023-12-20T01:43:50;20.90;50.00
21891;DHT22;11110;52.386;16.940;2023-12-20T01:46:21;20.90;50.00
21891;DHT22;11110;52.386;16.940;2023-12-20T01:48:50;20.90;50.00
21891;DHT22;11110;52.386;16.940;2023-12-20T01:51:20;20.90;50.00
21891;DHT22;11110;52.386;16.940;2023-12-20T01:53:49;20.90;50.00
21891;DHT22;11110;52.386;16.940;2023-12-20T01:56:18;20.90;50.00
21891;DHT22;11110;52.386;16.940;2023-12-20T01:58:47;20.90;50.00
21891;DHT22;11110;52.386;16.940;2023-12-20T02:01:16;20.90;49.90
21891;DHT22;11110;52.386;16.940;2023-12-20T02:03:47;20.90;49.90
21891;DHT22;11110;52.386;16.940;2023-12-20T02:06:18;20.90;50.00
21891;DHT22;11110;52.386;16.940;2023-12-20T02:08:46;20.90;49.90
21891;DHT22;11110;52.386;16.940;2023-12-20T02:11:16;20.90;50.00
21891;DHT22;11110;52.386;16.940;2023-12-20T02:13:44;20.90;49.90
21891;DHT22;11110;52.386;16.940;2023-12-20T02:16:13;20.90;49.90
21891;DHT22;11110;52.386;16.940;2023-12-20T02:18:42;20.90;50.50
21891;DHT22;11110;52.386;16.940;2023-12-20T02:21:13;20.90;49.90
21891;DHT22;11110;52.386;16.940;2023-12-20T02:23:42;20.90;49.80
21891;DHT22;11110;52.386;16.940;2023-12-20T02:26:11;20.90;49.70
21891;DHT22;11110;52.386;16.940;2023-12-20T02:28:41;20.90;49.70
21891;DHT22;11110;52.386;16.940;2023-12-20T02:31:09;20.90;49.70
21891;DHT22;11110;52.386;16.940;2023-12-20T02:33:38;20.90;49.70
21891;DHT22;11110;52.386;16.940;2023-12-20T02:36:06;20.90;49.70
21891;DHT22;11110;52.386;16.940;2023-12-20T02:38:35;20.90;49.70
21891;DHT22;11110;52.386;16.940;2023-12-20T02:41:05;20.90;49.70
21891;DHT22;11110;52.386;16.940;2023-12-20T02:43:33;20.90;49.70
21891;DHT22;11110;52.386;16.940;2023-12-20T02:46:02;20.90;49.70
21891;DHT22;11110;52.386;16.940;2023-12-20T02:48:30;20.80;49.60
21891;DHT22;11110;52.386;16.940;2023-12-20T02:50:59;20.90;49.70
21891;DHT22;11110;52.386;16.940;2023-12-20T02:53:27;20.90;49.60
21891;DHT22;11110;52.386;16.940;2023-12-20T02:55:56;20.90;49.50
21891;DHT22;11110;52.386;16.940;2023-12-20T02:58:26;20.80;49.60
21891;DHT22;11110;52.386;16.940;2023-12-20T03:00:55;20.80;49.60
21891;DHT22;11110;52.386;16.940;2023-12-20T03:03:23;20.80;49.60
21891;DHT22;11110;52.386;16.940;2023-12-20T03:05:52;20.80;49.70
21891;DHT22;11110;52.386;16.940;2023-12-20T03:08:21;20.80;49.80
21891;DHT22;11110;52.386;16.940;2023-12-20T03:10:49;20.70;49.80
21891;DHT22;11110;52.386;16.940;2023-12-20T03:13:18;20.80;49.80
21891;DHT22;11110;52.386;16.940;2023-12-20T03:15:48;20.80;49.70
21891;DHT22;11110;52.386;16.940;2023-12-20T03:18:16;20.70;49.80
21891;DHT22;11110;52.386;16.940;2023-12-20T03:20:45;20.70;49.80
21891;DHT22;11110;52.386;16.940;2023-12-20T03:23:15;20.70;49.80
21891;DHT22;11110;52.386;16.940;2023-12-20T03:25:44;20.70;49.90
21891;DHT22;11110;52.386;16.940;2023-12-20T03:28:14;20.70;49.80
21891;DHT22;11110;52.386;16.940;2023-12-20T03:30:43;20.10;49.60
21891;DHT22;11110;52.386;16.940;2023-12-20T03:33:13;20.70;49.90
21891;DHT22;11110;52.386;16.940;2023-12-20T03:35:41;20.70;49.90
21891;DHT22;11110;52.386;16.940;2023-12-20T03:38:10;20.70;49.80
21891;DHT22;11110;52.386;16.940;2023-12-20T03:40:38;20.80;49.70
21891;DHT22;11110;52.386;16.940;2023-12-20T03:43:07;20.80;49.60
21891;DHT22;11110;52.386;16.940;2023-12-20T03:45:35;20.80;50.20
21891;DHT22;11110;52.386;16.940;2023-12-20T03:48:05;20.80;49.60
21891;DHT22;11110;52.386;16.940;2023-12-20T03:50:35;20.70;49.60
21891;DHT22;11110;52.386;16.940;2023-12-20T03:53:03;20.80;49.60
21891;DHT22;11110;52.386;16.940;2023-12-20T03:55:32;20.80;49.60
21891;DHT22;11110;52.386;16.940;2023-12-20T03:58:01;20.80;49.60
21891;DHT22;11110;52.386;16.940;2023-12-20T04:00:29;20.80;49.60
21891;DHT22;11110;52.386;16.940;2023-12-20T04:02:58;20.80;49.50
21891;DHT22;11110;52.386;16.940;2023-12-20T04:05:26;20.90;49.50
21891;DHT22;11110;52.386;16.940;2023-12-20T04:07:56;20.80;49.40
21891;DHT22;11110;52.386;16.940;2023-12-20T04:10:25;20.80;49.40
21891;DHT22;11110;52.386;16.940;2023-12-20T04:12:54;20.90;49.50
21891;DHT22;11110;52.386;16.940;2023-12-20T04:15:22;20.80;49.40
21891;DHT22;11110;52.386;16.940;2023-12-20T04:17:51;20.80;49.60
21891;DHT22;11110;52.386;16.940;2023-12-20T04:20:20;20.70;49.60
21891;DHT22;11110;52.386;16.940;2023-12-20T04:22:48;20.70;49.60
21891;DHT22;11110;52.386;16.940;2023-12-20T04:25:18;20.80;49.60
21891;DHT22;11110;52.386;16.940;2023-12-20T04:27:46;20.70;49.60
21891;DHT22;11110;52.386;16.940;2023-12-20T04:30:15;20.70;49.60
21891;DHT22;11110;52.386;16.940;2023-12-20T04:32:44;20.70;49.60
21891;DHT22;11110;52.386;16.940;2023-12-20T04:35:13;20.80;50.20
21891;DHT22;11110;52.386;16.940;2023-12-20T04:37:41;20.70;49.70
21891;DHT22;11110;52.386;16.940;2023-12-20T04:40:11;20.70;49.70
21891;DHT22;11110;52.386;16.940;2023-12-20T04:42:41;20.70;49.70
21891;DHT22;11110;52.386;16.940;2023-12-20T04:45:10;20.70;49.70
21891;DHT22;11110;52.386;16.940;2023-12-20T04:47:42;20.70;49.80
21891;DHT22;11110;52.386;16.940;2023-12-20T04:50:11;20.70;49.80
21891;DHT22;11110;52.386;16.940;2023-12-20T04:52:40;20.60;49.70
21891;DHT22;11110;52.386;16.940;2023-12-20T04:55:09;20.70;49.80
21891;DHT22;11110;52.386;16.940;2023-12-20T04:57:38;20.70;49.80
21891;DHT22;11110;52.386;16.940;2023-12-20T05:00:09;20.70;49.80
21891;DHT22;11110;52.386;16.940;2023-12-20T05:02:38;20.70;49.80
21891;DHT22;11110;52.386;16.940;2023-12-20T05:05:07;20.60;49.90
21891;DHT22;11110;52.386;16.940;2023-12-20T05:07:36;20.60;50.00
21891;DHT22;11110;52.386;16.940;2023-12-20T05:10:05;20.60;50.00
21891;DHT22;11110;52.386;16.940;2023-12-20T05:12:35;20.60;50.00
21891;DHT22;11110;52.386;16.940;2023-12-20T05:15:05;20.60;50.00
21891;DHT22;11110;52.386;16.940;2023-12-20T05:17:35;20.70;50.00
21891;DHT22;11110;52.386;16.940;2023-12-20T05:20:05;20.60;49.90
21891;DHT22;11110;52.386;16.940;2023-12-20T05:22:34;20.50;49.90
21891;DHT22;11110;52.386;16.940;2023-12-20T05:25:03;20.50;49.90
21891;DHT22;11110;52.386;16.940;2023-12-20T05:27:31;20.40;50.00
21891;DHT22;11110;52.386;16.940;2023-12-20T05:30:00;20.50;50.80
21891;DHT22;11110;52.386;16.940;2023-12-20T05:32:28;20.40;50.10
21891;DHT22;11110;52.386;16.940;2023-12-20T05:34:58;20.40;50.10
21891;DHT22;11110;52.386;16.940;2023-12-20T05:37:27;20.40;50.00
21891;DHT22;11110;52.386;16.940;2023-12-20T05:39:56;20.40;50.10
21891;DHT22;11110;52.386;16.940;2023-12-20T05:42:24;20.40;50.10
21891;DHT22;11110;52.386;16.940;2023-12-20T05:44:53;20.40;50.10
21891;DHT22;11110;52.386;16.940;2023-12-20T05:47:25;20.40;50.10
21891;DHT22;11110;52.386;16.940;2023-12-20T05:49:53;20.40;50.20
21891;DHT22;11110;52.386;16.940;2023-12-20T05:52:23;20.40;50.20
21891;DHT22;11110;52.386;16.940;2023-12-20T05:54:52;20.50;50.20
21891;DHT22;11110;52.386;16.940;2023-12-20T05:57:20;20.50;49.90
21891;DHT22;11110;52.386;16.940;2023-12-20T05:59:50;20.50;49.90
21891;DHT22;11110;52.386;16.940;2023-12-20T06:02:19;20.60;49.90
21891;DHT22;11110;52.386;16.940;2023-12-20T06:04:47;20.50;49.80
21891;DHT22;11110;52.386;16.940;2023-12-20T06:07:16;20.60;49.80
21891;DHT22;11110;52.386;16.940;2023-12-20T06:09:47;20.60;49.80
21891;DHT22;11110;52.386;16.940;2023-12-20T06:12:15;20.70;49.60
21891;DHT22;11110;52.386;16.940;2023-12-20T06:14:44;20.60;49.50
21891;DHT22;11110;52.386;16.940;2023-12-20T06:17:12;20.60;49.50
21891;DHT22;11110;52.386;16.940;2023-12-20T06:19:41;20.60;49.50
21891;DHT22;11110;52.386;16.940;2023-12-20T06:22:12;20.60;49.50
21891;DHT22;11110;52.386;16.940;2023-12-20T06:24:41;20.60;49.50
21891;DHT22;11110;52.386;16.940;2023-12-20T06:27:11;20.70;49.40
21891;DHT22;11110;52.386;16.940;2023-12-20T06:29:39;20.70;49.40
21891;DHT22;11110;52.386;16.940;2023-12-20T06:32:10;20.60;49.30
21891;DHT22;11110;52.386;16.940;2023-12-20T06:34:38;20.70;49.40
21891;DHT22;11110;52.386;16.940;2023-12-20T06:37:07;20.80;49.20
21891;DHT22;11110;52.386;16.940;2023-12-20T06:39:36;20.80;49.20
21891;DHT22;11110;52.386;16.940;2023-12-20T06:42:04;20.80;49.20
21891;DHT22;11110;52.386;16.940;2023-12-20T06:44:34;20.80;49.20
21891;DHT22;11110;52.386;16.940;2023-12-20T06:47:03;20.80;49.20
21891;DHT22;11110;52.386;16.940;2023-12-20T06:49:31;20.70;49.10
21891;DHT22;11110;52.386;16.940;2023-12-20T06:52:00;20.80;49.10
21891;DHT22;11110;52.386;16.940;2023-12-20T06:54:28;20.80;49.10
21891;DHT22;11110;52.386;16.940;2023-12-20T06:56:57;20.70;49.70
21891;DHT22;11110;52.386;16.940;2023-12-20T06:59:25;20.80;49.10
21891;DHT22;11110;52.386;16.940;2023-12-20T07:01:55;20.70;49.00
21891;DHT22;11110;52.386;16.940;2023-12-20T07:04:24;20.70;49.10
21891;DHT22;11110;52.386;16.940;2023-12-20T07:06:52;20.80;49.00
21891;DHT22;11110;52.386;16.940;2023-12-20T07:09:25;20.80;48.80
21891;DHT22;11110;52.386;16.940;2023-12-20T07:11:53;20.70;48.90
21891;DHT22;11110;52.386;16.940;2023-12-20T07:14:22;20.70;48.90
21891;DHT22;11110;52.386;16.940;2023-12-20T07:16:50;20.70;48.90
21891;DHT22;11110;52.386;16.940;2023-12-20T07:19:20;20.70;48.80
21891;DHT22;11110;52.386;16.940;2023-12-20T07:21:48;20.70;48.80
21891;DHT22;11110;52.386;16.940;2023-12-20T07:24:17;20.70;49.00
21891;DHT22;11110;52.386;16.940;2023-12-20T07:26:45;20.60;48.80
21891;DHT22;11110;52.386;16.940;2023-12-20T07:29:14;20.60;49.60
21891;DHT22;11110;52.386;16.940;2023-12-20T07:31:42;20.60;48.90
21891;DHT22;11110;52.386;16.940;2023-12-20T07:34:11;20.50;48.90
21891;DHT22;11110;52.386;16.940;2023-12-20T07:36:41;20.50;48.90
21891;DHT22;11110;52.386;16.940;2023-12-20T07:39:10;20.50;48.90
21891;DHT22;11110;52.386;16.940;2023-12-20T07:41:38;20.50;49.00
21891;DHT22;11110;52.386;16.940;2023-12-20T07:44:07;20.60;48.90
21891;DHT22;11110;52.386;16.940;2023-12-20T07:46:35;20.60;48.90
21891;DHT22;11110;52.386;16.940;2023-12-20T07:49:04;20.60;48.80
21891;DHT22;11110;52.386;16.940;2023-12-20T07:51:33;20.60;48.70
21891;DHT22;11110;52.386;16.940;2023-12-20T07:54:03;20.60;48.80
21891;DHT22;11110;52.386;16.940;2023-12-20T07:56:31;20.60;48.80
21891;DHT22;11110;52.386;16.940;2023-12-20T07:59:00;20.70;48.70
21891;DHT22;11110;52.386;16.940;2023-12-20T08:01:29;20.60;48.60
21891;DHT22;11110;52.386;16.940;2023-12-20T08:03:58;20.60;49.40
21891;DHT22;11110;52.386;16.940;2023-12-20T08:06:26;21.80;49.30
21891;DHT22;11110;52.386;16.940;2023-12-20T08:08:55;20.60;48.70
21891;DHT22;11110;52.386;16.940;2023-12-20T08:11:34;20.60;48.60
21891;DHT22;11110;52.386;16.940;2023-12-20T08:14:02;20.60;48.60
21891;DHT22;11110;52.386;16.940;2023-12-20T08:16:30;20.60;48.60
21891;DHT22;11110;52.386;16.940;2023-12-20T08:18:59;20.60;48.70
21891;DHT22;11110;52.386;16.940;2023-12-20T08:21:29;20.60;48.80
21891;DHT22;11110;52.386;16.940;2023-12-20T08:24:01;20.60;48.70
21891;DHT22;11110;52.386;16.940;2023-12-20T08:26:30;20.60;48.60
21891;DHT22;11110;52.386;16.940;2023-12-20T08:29:00;20.70;48.40
21891;DHT22;11110;52.386;16.940;2023-12-20T08:31:29;20.60;48.30
21891;DHT22;11110;52.386;16.940;2023-12-20T08:33:57;20.50;48.20
21891;DHT22;11110;52.386;16.940;2023-12-20T08:36:26;20.50;48.20
21891;DHT22;11110;52.386;16.940;2023-12-20T08:38:54;20.50;47.90
21891;DHT22;11110;52.386;16.940;2023-12-20T08:41:23;20.40;48.00
21891;DHT22;11110;52.386;16.940;2023-12-20T08:43:51;20.40;48.00
21891;DHT22;11110;52.386;16.940;2023-12-20T08:46:21;20.40;48.00
21891;DHT22;11110;52.386;16.940;2023-12-20T08:48:50;19.80;47.90
21891;DHT22;11110;52.386;16.940;2023-12-20T08:51:18;20.30;48.30
21891;DHT22;11110;52.386;16.940;2023-12-20T08:53:48;20.30;48.30
21891;DHT22;11110;52.386;16.940;2023-12-20T08:56:16;20.30;48.30
21891;DHT22;11110;52.386;16.940;2023-12-20T08:58:46;20.30;48.30
21891;DHT22;11110;52.386;16.940;2023-12-20T09:01:14;20.40;48.30
21891;DHT22;11110;52.386;16.940;2023-12-20T09:03:44;20.40;48.00
21891;DHT22;11110;52.386;16.940;2023-12-20T09:06:13;20.40;48.00
21891;DHT22;11110;52.386;16.940;2023-12-20T09:08:41;20.40;48.00
21891;DHT22;11110;52.386;16.940;2023-12-20T09:11:10;20.30;47.80
21891;DHT22;11110;52.386;16.940;2023-12-20T09:13:40;20.40;47.90
21891;DHT22;11110;52.386;16.940;2023-12-20T09:16:08;20.40;47.90
21891;DHT22;11110;52.386;16.940;2023-12-20T09:18:37;20.40;47.90
21891;DHT22;11110;52.386;16.940;2023-12-20T09:21:07;20.40;47.90
21891;DHT22;11110;52.386;16.940;2023-12-20T09:23:35;20.40;47.90
21891;DHT22;11110;52.386;16.940;2023-12-20T09:26:04;20.40;47.70
21891;DHT22;11110;52.386;16.940;2023-12-20T09:28:33;20.40;47.50
21891;DHT22;11110;52.386;16.940;2023-12-20T09:31:04;20.40;47.70
21891;DHT22;11110;52.386;16.940;2023-12-20T09:33:34;20.50;47.30
21891;DHT22;11110;52.386;16.940;2023-12-20T09:36:03;20.40;46.90
21891;DHT22;11110;52.386;16.940;2023-12-20T09:38:33;20.50;46.90
21891;DHT22;11110;52.386;16.940;2023-12-20T09:41:02;20.40;46.70
21891;DHT22;11110;52.386;16.940;2023-12-20T09:43:33;20.30;46.60
21891;DHT22;11110;52.386;16.940;2023-12-20T09:46:05;20.30;46.70
21891;DHT22;11110;52.386;16.940;2023-12-20T09:48:35;20.40;46.70
21891;DHT22;11110;52.386;16.940;2023-12-20T09:51:04;20.30;47.00
21891;DHT22;11110;52.386;16.940;2023-12-20T09:53:36;20.30;46.90
21891;DHT22;11110;52.386;16.940;2023-12-20T09:56:06;20.30;47.00
21891;DHT22;11110;52.386;16.940;2023-12-20T09:58:36;20.30;46.90
21891;DHT22;11110;52.386;16.940;2023-12-20T10:01:06;20.40;46.80
21891;DHT22;11110;52.386;16.940;2023-12-20T10:03:35;20.50;46.80
21891;DHT22;11110;52.386;16.940;2023-12-20T10:06:04;20.50;46.60
21891;DHT22;11110;52.386;16.940;2023-12-20T10:08:35;20.50;46.40
21891;DHT22;11110;52.386;16.940;2023-12-20T10:11:03;20.50;46.30
21891;DHT22;11110;52.386;16.940;2023-12-20T10:13:33;20.40;46.30
21891;DHT22;11110;52.386;16.940;2023-12-20T10:16:02;20.40;46.40
21891;DHT22;11110;52.386;16.940;2023-12-20T10:18:31;20.40;46.40
21891;DHT22;11110;52.386;16.940;2023-12-20T10:21:06;20.40;46.20
21891;DHT22;11110;52.386;16.940;2023-12-20T10:23:38;20.40;46.10
21891;DHT22;11110;52.386;16.940;2023-12-20T10:26:08;20.40;46.10
21891;DHT22;11110;52.386;16.940;2023-12-20T10:28:37;20.30;46.30
21891;DHT22;11110;52.386;16.940;2023-12-20T10:31:06;20.40;46.30
21891;DHT22;11110;52.386;16.940;2023-12-20T10:33:35;20.40;46.20
21891;DHT22;11110;52.386;16.940;2023-12-20T10:36:04;20.40;46.20
21891;DHT22;11110;52.386;16.940;2023-12-20T10:38:34;20.40;46.30
21891;DHT22;11110;52.386;16.940;2023-12-20T10:41:06;20.40;46.20
21891;DHT22;11110;52.386;16.940;2023-12-20T10:43:36;20.50;46.30
21891;DHT22;11110;52.386;16.940;2023-12-20T10:46:05;20.50;46.20
21891;DHT22;11110;52.386;16.940;2023-12-20T10:48:34;20.50;45.90
21891;DHT22;11110;52.386;16.940;2023-12-20T10:51:05;20.50;45.90
21891;DHT22;11110;52.386;16.940;2023-12-20T10:53:34;20.50;45.90
21891;DHT22;11110;52.386;16.940;2023-12-20T10:56:08;20.50;46.00
21891;DHT22;11110;52.386;16.940;2023-12-20T10:58:42;20.40;45.90
21891;DHT22;11110;52.386;16.940;2023-12-20T11:01:12;20.50;46.10
21891;DHT22;11110;52.386;16.940;2023-12-20T11:03:44;20.50;45.70
21891;DHT22;11110;52.386;16.940;2023-12-20T11:06:27;20.50;45.60
21891;DHT22;11110;52.386;16.940;2023-12-20T11:09:04;20.60;45.70
21891;DHT22;11110;52.386;16.940;2023-12-20T11:11:47;20.50;45.60
21891;DHT22;11110;52.386;16.940;2023-12-20T11:14:24;20.50;45.60
21891;DHT22;11110;52.386;16.940;2023-12-20T11:17:05;20.50;45.70
21891;DHT22;11110;52.386;16.940;2023-12-20T11:19:36;20.50;45.70
21891;DHT22;11110;52.386;16.940;2023-12-20T11:22:05;20.50;45.60
21891;DHT22;11110;52.386;16.940;2023-12-20T11:24:34;20.60;45.90
21891;DHT22;11110;52.386;16.940;2023-12-20T11:27:06;20.50;45.80
21891;DHT22;11110;52.386;16.940;2023-12-20T11:29:35;20.50;45.70
21891;DHT22;11110;52.386;16.940;2023-12-20T11:32:28;20.50;45.70
21891;DHT22;11110;52.386;16.940;2023-12-20T11:34:59;20.50;45.70
21891;DHT22;11110;52.386;16.940;2023-12-20T11:37:31;20.50;45.80
21891;DHT22;11110;52.386;16.940;2023-12-20T11:40:02;20.50;45.70
21891;DHT22;11110;52.386;16.940;2023-12-20T11:42:38;20.40;45.70
21891;DHT22;11110;52.386;16.940;2023-12-20T11:45:09;20.40;45.80
21891;DHT22;11110;52.386;16.940;2023-12-20T11:47:38;20.30;46.10
21891;DHT22;11110;52.386;16.940;2023-12-20T11:50:07;20.30;46.00
21891;DHT22;11110;52.386;16.940;2023-12-20T11:52:35;20.30;46.30
21891;DHT22;11110;52.386;16.940;2023-12-20T11:55:05;20.30;46.30
21891;DHT22;11110;52.386;16.940;2023-12-20T11:57:36;20.30;46.30
21891;DHT22;11110;52.386;16.940;2023-12-20T12:00:06;20.30;46.30
21891;DHT22;11110;52.386;16.940;2023-12-20T12:02:41;20.30;46.30
21891;DHT22;11110;52.386;16.940;2023-12-20T12:05:12;20.20;46.70
21891;DHT22;11110;52.386;16.940;2023-12-20T12:07:41;20.10;46.60
21891;DHT22;11110;52.386;16.940;2023-12-20T12:10:10;20.10;46.80
21891;DHT22;11110;52.386;16.940;2023-12-20T12:12:40;20.10;46.70
21891;DHT22;11110;52.386;16.940;2023-12-20T12:15:09;20.10;46.70
21891;DHT22;11110;52.386;16.940;2023-12-20T12:17:37;20.10;46.60
21891;DHT22;11110;52.386;16.940;2023-12-20T12:20:07;20.20;46.40
21891;DHT22;11110;52.386;16.940;2023-12-20T12:22:37;20.20;46.40
21891;DHT22;11110;52.386;16.940;2023-12-20T12:25:12;20.10;46.30
21891;DHT22;11110;52.386;16.940;2023-12-20T12:27:43;20.00;46.40
21891;DHT22;11110;52.386;16.940;2023-12-20T12:30:12;20.00;46.40
21891;DHT22;11110;52.386;16.940;2023-12-20T12:32:41;20.00;46.40
21891;DHT22;11110;52.386;16.940;2023-12-20T12:35:10;20.00;46.40
21891;DHT22;11110;52.386;16.940;2023-12-20T12:37:40;20.10;46.20
21891;DHT22;11110;52.386;16.940;2023-12-20T12:40:10;20.10;46.20
21891;DHT22;11110;52.386;16.940;2023-12-20T12:42:43;20.10;46.10
21891;DHT22;11110;52.386;16.940;2023-12-20T12:45:12;20.00;46.20
21891;DHT22;11110;52.386;16.940;2023-12-20T12:47:40;20.00;46.30
21891;DHT22;11110;52.386;16.940;2023-12-20T12:50:09;20.00;46.20
21891;DHT22;11110;52.386;16.940;2023-12-20T12:52:38;20.00;46.90
21891;DHT22;11110;52.386;16.940;2023-12-20T12:55:07;20.00;46.10
21891;DHT22;11110;52.386;16.940;2023-12-20T12:57:35;20.10;46.00
21891;DHT22;11110;52.386;16.940;2023-12-20T13:00:07;19.90;46.10
21891;DHT22;11110;52.386;16.940;2023-12-20T13:02:36;20.00;46.30
21891;DHT22;11110;52.386;16.940;2023-12-20T13:05:09;20.00;46.20
21891;DHT22;11110;52.386;16.940;2023-12-20T13:07:38;20.00;46.20
21891;DHT22;11110;52.386;16.940;2023-12-20T13:10:07;20.10;46.10
21891;DHT22;11110;52.386;16.940;2023-12-20T13:12:36;20.10;45.90
21891;DHT22;11110;52.386;16.940;2023-12-20T13:15:07;20.10;46.00
21891;DHT22;11110;52.386;16.940;2023-12-20T13:17:36;20.20;45.90
21891;DHT22;11110;52.386;16.940;2023-12-20T13:20:06;20.20;45.60
21891;DHT22;11110;52.386;16.940;2023-12-20T13:22:35;20.10;45.60
21891;DHT22;11110;52.386;16.940;2023-12-20T13:25:05;20.20;45.50
21891;DHT22;11110;52.386;16.940;2023-12-20T13:27:33;20.20;45.50
21891;DHT22;11110;52.386;16.940;2023-12-20T13:30:02;20.20;45.40
21891;DHT22;11110;52.386;16.940;2023-12-20T13:32:32;20.10;45.30
21891;DHT22;11110;52.386;16.940;2023-12-20T13:35:02;20.10;45.40
21891;DHT22;11110;52.386;16.940;2023-12-20T13:37:31;20.10;45.30
21891;DHT22;11110;52.386;16.940;2023-12-20T13:40:00;20.10;45.30
21891;DHT22;11110;52.386;16.940;2023-12-20T13:42:30;20.10;45.30
21891;DHT22;11110;52.386;16.940;2023-12-20T13:44:58;20.10;45.30
21891;DHT22;11110;52.386;16.940;2023-12-20T13:47:27;20.30;45.00
21891;DHT22;11110;52.386;16.940;2023-12-20T13:50:00;20.20;44.90
21891;DHT22;11110;52.386;16.940;2023-12-20T13:52:29;20.30;45.60
21891;DHT22;11110;52.386;16.940;2023-12-20T13:54:57;20.30;44.90
21891;DHT22;11110;52.386;16.940;2023-12-20T13:57:26;20.20;44.80
21891;DHT22;11110;52.386;16.940;2023-12-20T14:00:16;20.20;44.90
21891;DHT22;11110;52.386;16.940;2023-12-20T14:02:45;20.20;44.90
21891;DHT22;11110;52.386;16.940;2023-12-20T14:05:16;20.20;44.90
21891;DHT22;11110;52.386;16.940;2023-12-20T14:07:45;20.30;44.70
21891;DHT22;11110;52.386;16.940;2023-12-20T14:10:15;20.30;45.50
21891;DHT22;11110;52.386;16.940;2023-12-20T14:12:44;20.20;44.80
21891;DHT22;11110;52.386;16.940;2023-12-20T14:15:13;20.30;44.60
21891;DHT22;11110;52.386;16.940;2023-12-20T14:17:41;20.30;44.60
21891;DHT22;11110;52.386;16.940;2023-12-20T14:20:11;20.20;44.70
21891;DHT22;11110;52.386;16.940;2023-12-20T14:22:42;20.30;44.70
21891;DHT22;11110;52.386;16.940;2023-12-20T14:25:13;20.20;44.70
21891;DHT22;11110;52.386;16.940;2023-12-20T14:27:42;20.20;44.40
21891;DHT22;11110;52.386;16.940;2023-12-20T14:30:13;20.20;44.60
21891;DHT22;11110;52.386;16.940;2023-12-20T14:32:42;20.30;44.50
21891;DHT22;11110;52.386;16.940;2023-12-20T14:35:11;20.40;44.30
21891;DHT22;11110;52.386;16.940;2023-12-20T14:37:41;20.30;44.30
21891;DHT22;11110;52.386;16.940;2023-12-20T14:40:12;20.40;44.30
21891;DHT22;11110;52.386;16.940;2023-12-20T14:42:43;20.30;44.40
21891;DHT22;11110;52.386;16.940;2023-12-20T14:45:13;20.40;44.30
21891;DHT22;11110;52.386;16.940;2023-12-20T14:47:43;20.40;44.20
21891;DHT22;11110;52.386;16.940;2023-12-20T14:50:13;20.50;44.10
21891;DHT22;11110;52.386;16.940;2023-12-20T14:52:47;20.40;44.10
21891;DHT22;11110;52.386;16.940;2023-12-20T14:55:16;20.50;44.30
21891;DHT22;11110;52.386;16.940;2023-12-20T14:57:45;20.50;44.30
21891;DHT22;11110;52.386;16.940;2023-12-20T15:00:14;20.50;44.30
21891;DHT22;11110;52.386;16.940;2023-12-20T15:02:45;20.40;44.60
21891;DHT22;11110;52.386;16.940;2023-12-20T15:05:14;20.50;45.30
21891;DHT22;11110;52.386;16.940;2023-12-20T15:07:42;20.50;44.70
21891;DHT22;11110;52.386;16.940;2023-12-20T15:10:13;20.40;44.60
21891;DHT22;11110;52.386;16.940;2023-12-20T15:12:41;20.50;45.00
21891;DHT22;11110;52.386;16.940;2023-12-20T15:15:10;20.40;44.90
21891;DHT22;11110;52.386;16.940;2023-12-20T15:17:39;20.40;44.90
21891;DHT22;11110;52.386;16.940;2023-12-20T15:20:09;20.40;44.90
21891;DHT22;11110;52.386;16.940;2023-12-20T15:22:38;20.40;44.90
21891;DHT22;11110;52.386;16.940;2023-12-20T15:25:08;20.40;44.80
21891;DHT22;11110;52.386;16.940;2023-12-20T15:27:38;20.40;44.70
21891;DHT22;11110;52.386;16.940;2023-12-20T15:30:08;20.40;45.30